Time;durP1;ratioP1;P1;durP2;ratioP2;P2;SDS_P1;SDS_P2;PMS_P1;PMS_P2;Temp;Humidity;BMP_temperature;BMP_pressure;BME280_temperature;BME280_humidity;BME280_pressure;Samples;Min_cycle;Max_cycle;Signal;HPM_P1;HPM_P2
2023/01/03 00:00:09;;;;;;;14.93;7.07;;;;;;;3.72;100.00;102516.22;5044530;28;20032;-40
2023/01/03 00:02:34;;;;;;;12.70;5.68;;;;;;;3.63;100.00;102519.44;5035568;28;20037;-37
2023/01/03 00:05:00;;;;;;;12.70;5.88;;;;;;;3.58;100.00;102513.56;5030007;28;20477;-39
2023/01/03 00:07:34;;;;;;;10.70;5.80;;;;;;;3.50;100.00;102515.81;5044828;28;20045;-38
2023/01/03 00:10:05;;;;;;;14.90;5.95;;;;;;;3.46;100.00;102517.84;5033818;28;20052;-39
2023/01/03 00:12:31;;;;;;;14.82;6.78;;;;;;;3.44;100.00;102516.22;5039043;28;20348;-36
2023/01/03 00:14:57;;;;;;;14.27;6.38;;;;;;;3.39;100.00;102519.16;5035633;28;20045;-39
2023/01/03 00:17:22;;;;;;;18.95;6.45;;;;;;;3.34;100.00;102517.72;5036584;28;20100;-39
2023/01/03 00:19:48;;;;;;;12.52;6.13;;;;;;;3.27;100.00;102518.09;5048126;28;20436;-39
2023/01/03 00:22:14;;;;;;;16.95;6.05;;;;;;;3.22;100.00;102519.34;5040513;28;20029;-37
2023/01/03 00:24:40;;;;;;;11.10;6.25;;;;;;;3.19;100.00;102515.06;5030036;28;20493;-39
2023/01/03 00:27:05;;;;;;;11.75;6.05;;;;;;;3.21;100.00;102513.16;5029882;28;20029;-39
2023/01/03 00:29:31;;;;;;;13.98;5.43;;;;;;;3.17;100.00;102522.28;5029497;28;20117;-39
2023/01/03 00:31:56;;;;;;;10.27;4.80;;;;;;;3.10;100.00;102520.91;5049176;28;20488;-39
2023/01/03 00:34:22;;;;;;;13.40;5.00;;;;;;;2.99;100.00;102520.72;5039436;28;20087;-37
2023/01/03 00:36:47;;;;;;;10.15;4.28;;;;;;;2.96;100.00;102529.72;5043239;28;20032;-39
2023/01/03 00:39:13;;;;;;;10.02;4.47;;;;;;;2.96;100.00;102523.56;5041292;28;20040;-37
2023/01/03 00:41:39;;;;;;;12.27;4.40;;;;;;;2.98;100.00;102519.88;5031895;28;20463;-39
2023/01/03 00:44:05;;;;;;;13.20;4.75;;;;;;;2.99;100.00;102528.69;5049251;28;20029;-39
2023/01/03 00:46:31;;;;;;;10.98;4.82;;;;;;;3.00;100.00;102530.38;5049533;28;20066;-38
2023/01/03 00:48:56;;;;;;;8.68;4.57;;;;;;;2.99;100.00;102523.38;5045553;28;20484;-39
2023/01/03 00:51:24;;;;;;;10.55;4.72;;;;;;;2.99;100.00;102521.56;5043728;28;20037;-39
2023/01/03 00:53:51;;;;;;;14.73;6.18;;;;;;;3.01;100.00;102527.66;5029940;28;20185;-39
2023/01/03 00:56:19;;;;;;;13.68;4.32;;;;;;;2.99;100.00;102518.91;5035165;28;20021;-37
2023/01/03 00:58:45;;;;;;;11.93;4.80;;;;;;;2.99;100.00;102534.00;5035386;28;20508;-37
2023/01/03 01:01:15;;;;;;;9.13;4.65;;;;;;;2.98;100.00;102521.66;5028741;28;20033;-38
2023/01/03 01:03:43;;;;;;;13.88;4.55;;;;;;;3.04;100.00;102529.28;5041307;28;20385;-38
2023/01/03 01:06:18;;;;;;;8.35;4.30;;;;;;;2.98;100.00;102527.84;5031820;28;20036;-39
2023/01/03 01:08:45;;;;;;;9.32;4.40;;;;;;;2.93;100.00;102529.06;5029862;28;20033;-40
2023/01/03 01:11:10;;;;;;;10.52;4.55;;;;;;;2.94;100.00;102530.75;5028379;28;20431;-39
2023/01/03 01:13:36;;;;;;;7.82;4.28;;;;;;;2.95;100.00;102527.16;5033275;28;20078;-39
2023/01/03 01:16:07;;;;;;;8.18;5.22;;;;;;;2.94;100.00;102536.94;5040758;28;20256;-38
2023/01/03 01:18:33;;;;;;;11.80;4.38;;;;;;;2.96;100.00;102539.53;5040000;28;20029;-38
2023/01/03 01:20:59;;;;;;;9.35;4.45;;;;;;;2.97;100.00;102538.56;5028600;28;20163;-39
2023/01/03 01:23:24;;;;;;;11.23;4.65;;;;;;;2.96;100.00;102539.53;5028374;28;20026;-39
2023/01/03 01:25:49;;;;;;;11.65;4.57;;;;;;;2.96;100.00;102540.38;5040327;28;20032;-38
2023/01/03 01:28:15;;;;;;;8.38;4.50;;;;;;;2.98;100.00;102545.59;5030270;28;20443;-39
2023/01/03 01:30:40;;;;;;;7.40;4.30;;;;;;;2.99;100.00;102544.66;5046038;28;20025;-39
2023/01/03 01:33:06;;;;;;;7.47;4.13;;;;;;;2.98;100.00;102546.47;5047903;28;20081;-37
2023/01/03 01:35:31;;;;;;;9.25;4.35;;;;;;;2.97;100.00;102546.53;5029564;28;20021;-39
2023/01/03 01:37:57;;;;;;;10.45;4.20;;;;;;;3.00;100.00;102557.00;5029299;28;20037;-37
2023/01/03 01:40:22;;;;;;;7.70;4.72;;;;;;;2.93;100.00;102550.34;5037574;28;20112;-37
2023/01/03 01:45:34;;;;;;;10.48;4.47;;;;;;;3.01;100.00;102554.25;5048597;28;20039;-38
2023/01/03 01:48:01;;;;;;;5.90;4.47;;;;;;;3.07;100.00;102561.00;5047241;28;20091;-37
2023/01/03 01:50:39;;;;;;;8.90;4.70;;;;;;;3.11;100.00;102559.91;5028039;28;20272;-38
2023/01/03 01:53:11;;;;;;;13.98;4.47;;;;;;;2.96;100.00;102560.78;5037510;28;20036;-38
2023/01/03 01:55:39;;;;;;;11.38;4.28;;;;;;;2.90;100.00;102566.44;5043327;28;20033;-37
2023/01/03 01:58:06;;;;;;;7.22;4.05;;;;;;;2.84;100.00;102557.03;5033679;28;20426;-36
2023/01/03 02:00:32;;;;;;;9.07;4.32;;;;;;;2.80;100.00;102559.03;5028212;28;20099;-40
2023/01/03 02:02:57;;;;;;;8.65;4.40;;;;;;;2.77;100.00;102567.19;5049702;28;20048;-39
2023/01/03 02:05:23;;;;;;;11.20;5.10;;;;;;;2.72;100.00;102558.63;5045444;28;20079;-39
2023/01/03 02:07:50;;;;;;;6.93;4.28;;;;;;;2.70;100.00;102571.13;5037767;28;20112;-39
2023/01/03 02:10:16;;;;;;;8.95;4.60;;;;;;;2.67;100.00;102566.00;5036342;28;20028;-39
2023/01/03 02:13:04;;;;;;;9.50;4.68;;;;;;;2.63;100.00;102565.34;5037913;28;20028;-40
2023/01/03 02:15:51;;;;;;;11.82;4.90;;;;;;;2.66;100.00;102564.31;5035496;28;20025;-39
2023/01/03 02:19:01;;;;;;;11.77;4.63;;;;;;;2.68;100.00;102558.88;5039651;28;20040;-38
2023/01/03 02:21:38;;;;;;;11.85;5.13;;;;;;;2.65;100.00;102565.22;5037292;28;20464;-37
2023/01/03 02:24:21;;;;;;;7.90;4.35;;;;;;;2.59;100.00;102565.59;5041852;28;20044;-39
2023/01/03 02:27:24;;;;;;;10.70;4.50;;;;;;;2.50;100.00;102550.16;5047889;28;20063;-39
2023/01/03 02:30:04;;;;;;;8.57;4.45;;;;;;;2.49;100.00;102551.09;5036238;28;20539;-38
2023/01/03 02:33:01;;;;;;;11.13;4.53;;;;;;;2.45;100.00;102544.22;5031457;28;20470;-38
2023/01/03 02:35:30;;;;;;;12.27;5.30;;;;;;;2.38;100.00;102543.75;5030349;28;20377;-39
2023/01/03 02:38:07;;;;;;;12.02;5.15;;;;;;;2.36;100.00;102546.47;5029796;28;20068;-39
2023/01/03 02:40:48;;;;;;;10.75;5.65;;;;;;;2.37;100.00;102539.34;5034213;28;20040;-39
2023/01/03 02:43:20;;;;;;;8.40;5.22;;;;;;;2.33;100.00;102536.03;5048359;28;20116;-39
2023/01/03 02:46:44;;;;;;;12.35;5.30;;;;;;;2.28;100.00;102539.88;5050369;28;20080;-38
2023/01/03 02:49:19;;;;;;;13.35;5.47;;;;;;;2.21;100.00;102531.38;5011700;28;20053;-36
2023/01/03 02:51:49;;;;;;;9.75;4.90;;;;;;;2.17;100.00;102535.19;5000623;28;20124;-39
2023/01/03 02:54:21;;;;;;;10.40;6.25;;;;;;;2.18;100.00;102540.38;5041821;28;20045;-39
2023/01/03 02:56:50;;;;;;;12.35;5.75;;;;;;;2.15;100.00;102537.06;5029523;28;20075;-36
2023/01/03 02:59:21;;;;;;;13.50;5.68;;;;;;;2.14;100.00;102530.03;5034108;28;20087;-38
2023/01/03 03:01:48;;;;;;;11.98;6.35;;;;;;;2.13;100.00;102539.81;5043921;28;20035;-39
2023/01/03 03:04:14;;;;;;;11.38;6.10;;;;;;;2.16;100.00;102547.63;5043413;28;20514;-39
2023/01/03 03:07:01;;;;;;;14.65;6.05;;;;;;;2.15;100.00;102547.69;5032834;28;20037;-39
2023/01/03 03:09:26;;;;;;;17.45;6.40;;;;;;;2.16;100.00;102550.28;5048349;28;20021;-38
2023/01/03 03:14:39;;;;;;;16.00;6.50;;;;;;;2.11;100.00;102538.19;5029461;28;20123;-39
2023/01/03 03:17:15;;;;;;;12.93;5.97;;;;;;;2.02;100.00;102547.50;5027057;28;20071;-39
2023/01/03 03:25:31;;;;;;;13.48;6.45;;;;;;;1.95;100.00;102535.53;5038208;28;20091;-38
2023/01/03 03:30:47;;;;;;;12.70;5.85;;;;;;;1.72;100.00;102523.50;5029413;28;22016;-38
2023/01/03 03:33:13;;;;;;;11.60;6.18;;;;;;;1.65;100.00;102514.16;5028745;28;20061;-39
2023/01/03 03:35:53;;;;;;;15.98;6.53;;;;;;;1.66;100.00;102514.06;5028786;28;20052;-38
2023/01/03 03:38:34;;;;;;;11.40;6.38;;;;;;;1.71;100.00;102512.03;5039453;28;20037;-36
2023/01/03 03:47:57;;;;;;;14.75;7.18;;;;;;;1.80;100.00;102515.13;5041525;28;20060;-39
2023/01/03 03:50:29;;;;;;;12.93;7.35;;;;;;;1.79;100.00;102518.69;5029102;28;20037;-39
2023/01/03 03:52:57;;;;;;;16.67;8.73;;;;;;;1.78;100.00;102517.84;5043177;28;20474;-39
2023/01/03 03:55:30;;;;;;;18.58;8.10;;;;;;;1.78;100.00;102514.34;5046531;28;20451;-37
2023/01/03 03:57:59;;;;;;;16.88;8.88;;;;;;;1.78;100.00;102511.69;5037855;28;20790;-36
2023/01/03 04:00:29;;;;;;;24.42;10.88;;;;;;;1.84;100.00;102528.13;5031346;28;20033;-39
2023/01/03 04:02:55;;;;;;;17.25;10.77;;;;;;;1.96;100.00;102540.72;5035558;28;20063;-37
2023/01/03 04:05:22;;;;;;;26.65;11.60;;;;;;;2.00;100.00;102536.09;5029254;28;20067;-38
2023/01/03 04:07:47;;;;;;;26.30;11.68;;;;;;;2.07;100.00;102533.97;5034445;28;20040;-38
2023/01/03 04:10:18;;;;;;;24.27;11.30;;;;;;;2.09;100.00;102532.09;5030275;28;20029;-38
2023/01/03 04:12:44;;;;;;;20.02;10.82;;;;;;;2.11;100.00;102541.69;5028163;28;20029;-38
2023/01/03 04:15:09;;;;;;;24.45;11.98;;;;;;;2.08;100.00;102541.88;5036859;28;20028;-36
2023/01/03 04:17:35;;;;;;;29.52;14.05;;;;;;;2.14;100.00;102540.66;5040251;28;20030;-37
2023/01/03 04:20:00;;;;;;;28.42;13.15;;;;;;;2.19;100.00;102535.97;5031559;28;20448;-38
2023/01/03 04:22:25;;;;;;;28.63;14.77;;;;;;;2.21;100.00;102534.03;5034894;28;20492;-39
2023/01/03 04:24:51;;;;;;;26.65;13.63;;;;;;;2.22;100.00;102545.56;5048782;28;20029;-39
2023/01/03 04:27:16;;;;;;;33.85;14.23;;;;;;;2.26;100.00;102539.09;5043708;28;20029;-38
2023/01/03 04:29:41;;;;;;;40.30;15.88;;;;;;;2.31;100.00;102535.25;5038930;28;20037;-36
2023/01/03 04:32:07;;;;;;;38.05;16.70;;;;;;;2.37;100.00;102534.03;5031770;28;20055;-36
2023/01/03 04:34:32;;;;;;;37.10;17.05;;;;;;;2.37;100.00;102545.56;5029607;28;20046;-36
2023/01/03 04:36:57;;;;;;;37.80;18.38;;;;;;;2.34;100.00;102537.75;5028804;28;20334;-38
2023/01/03 04:39:23;;;;;;;34.95;17.30;;;;;;;2.37;100.00;102536.69;5029182;28;20061;-36
2023/01/03 04:41:48;;;;;;;38.85;19.15;;;;;;;2.34;100.00;102543.06;5049614;28;20056;-37
2023/01/03 04:44:13;;;;;;;33.83;18.58;;;;;;;2.33;100.00;102540.50;5049840;28;20032;-38
2023/01/03 04:46:39;;;;;;;36.55;18.10;;;;;;;2.35;100.00;102539.47;5048347;28;20390;-36
2023/01/03 04:49:07;;;;;;;33.40;18.58;;;;;;;2.34;100.00;102547.50;5038375;28;20127;-39
2023/01/03 04:51:32;;;;;;;38.72;19.38;;;;;;;2.32;100.00;102544.94;5047715;28;20036;-38
2023/01/03 04:53:58;;;;;;;33.15;18.38;;;;;;;2.29;100.00;102539.81;5047177;28;20032;-37
2023/01/03 04:56:28;;;;;;;40.33;20.23;;;;;;;2.27;100.00;102541.69;5045713;28;20036;-36
2023/01/03 04:58:54;;;;;;;44.03;19.98;;;;;;;2.24;100.00;102528.59;5041559;28;20047;-39
2023/01/03 05:01:20;;;;;;;41.42;19.45;;;;;;;2.18;100.00;102527.09;5038701;28;20032;-37
2023/01/03 05:03:46;;;;;;;41.20;19.58;;;;;;;2.19;100.00;102525.34;5048738;28;20144;-38
2023/01/03 05:06:12;;;;;;;33.60;18.58;;;;;;;2.16;100.00;102522.84;5037284;28;20505;-38
2023/01/03 05:08:37;;;;;;;56.95;20.33;;;;;;;2.14;100.00;102520.28;5038307;28;20049;-38
2023/01/03 05:11:04;;;;;;;39.58;20.48;;;;;;;2.14;100.00;102530.03;5046878;28;20411;-36
2023/01/03 05:13:30;;;;;;;46.35;21.02;;;;;;;2.18;100.00;102531.56;5046218;28;20026;-38
2023/01/03 05:15:55;;;;;;;41.22;20.15;;;;;;;2.20;100.00;102529.69;5035552;28;20491;-37
2023/01/03 05:18:21;;;;;;;43.40;19.90;;;;;;;2.19;100.00;102530.66;5045866;28;20025;-39
2023/01/03 05:26:19;;;;;;;39.83;21.50;;;;;;;2.35;100.00;102528.84;5049536;28;20084;-39
2023/01/03 05:28:48;;;;;;;38.53;22.23;;;;;;;2.44;100.00;102526.59;5046341;28;20450;-38
2023/01/03 05:31:14;;;;;;;43.95;23.55;;;;;;;2.51;100.00;102520.00;5041739;28;20356;-39
2023/01/03 05:33:39;;;;;;;49.78;25.20;;;;;;;2.61;100.00;102529.16;5028888;28;20057;-39
2023/01/03 05:36:06;;;;;;;54.78;23.52;;;;;;;2.68;100.00;102519.00;5031999;28;20029;-39
2023/01/03 05:38:31;;;;;;;44.80;22.65;;;;;;;2.69;100.00;102520.72;5046373;28;20503;-38
2023/01/03 05:40:56;;;;;;;44.47;22.58;;;;;;;2.69;100.00;102521.59;5042250;28;20026;-38
2023/01/03 05:43:22;;;;;;;49.88;23.17;;;;;;;2.76;100.00;102519.41;5035954;28;20121;-39
2023/01/03 05:45:49;;;;;;;43.90;23.55;;;;;;;2.81;100.00;102512.88;5034119;28;20068;-39
2023/01/03 05:48:15;;;;;;;46.60;25.40;;;;;;;2.85;100.00;102522.38;5037253;28;20123;-36
2023/01/03 05:50:40;;;;;;;54.45;25.38;;;;;;;2.90;100.00;102518.59;5043564;28;20105;-37
2023/01/03 05:53:05;;;;;;;46.78;24.95;;;;;;;2.93;100.00;102513.09;5036138;28;20041;-39
2023/01/03 05:55:31;;;;;;;43.88;23.60;;;;;;;2.98;100.00;102511.88;5039435;28;20067;-38
2023/01/03 05:57:56;;;;;;;45.72;23.48;;;;;;;3.07;100.00;102518.44;5042376;28;20032;-37
2023/01/03 06:00:21;;;;;;;50.65;25.25;;;;;;;3.11;100.00;102514.66;5033316;28;20032;-39
2023/01/03 06:02:47;;;;;;;41.33;21.95;;;;;;;3.10;100.00;102512.94;5043452;28;20029;-39
2023/01/03 06:05:12;;;;;;;43.92;22.77;;;;;;;3.18;100.00;102518.66;5043359;28;20431;-38
2023/01/03 06:07:37;;;;;;;43.60;23.08;;;;;;;3.19;100.00;102508.88;5052905;28;20469;-39
2023/01/03 06:10:04;;;;;;;53.70;23.75;;;;;;;3.26;100.00;102513.72;5052752;28;20078;-39
2023/01/03 06:12:30;;;;;;;47.15;23.88;;;;;;;3.29;100.00;102510.91;5050196;28;20029;-39
2023/01/03 06:14:55;;;;;;;45.58;23.00;;;;;;;3.39;100.00;102524.47;5038344;28;20071;-39
2023/01/03 06:20:05;;;;;;;42.38;21.00;;;;;;;3.46;100.00;102528.47;5052888;28;20044;-39
2023/01/03 06:22:30;;;;;;;43.72;21.48;;;;;;;3.54;100.00;102530.66;5041769;28;20021;-39
2023/01/03 06:24:55;;;;;;;45.95;21.33;;;;;;;3.55;100.00;102518.22;5039326;28;20035;-38
2023/01/03 06:27:20;;;;;;;44.80;21.67;;;;;;;3.59;100.00;102507.28;5039057;28;20049;-38
2023/01/03 06:29:46;;;;;;;49.17;20.50;;;;;;;3.68;100.00;102488.06;5048554;28;20041;-38
2023/01/03 06:32:11;;;;;;;39.92;21.30;;;;;;;3.71;100.00;102506.53;5038429;28;20081;-37
2023/01/03 06:34:37;;;;;;;43.00;21.17;;;;;;;3.69;100.00;102505.75;5038498;28;20057;-36
2023/01/03 06:37:02;;;;;;;36.75;20.08;;;;;;;3.67;100.00;102507.66;5041386;28;20447;-37
2023/01/03 06:39:28;;;;;;;39.28;20.00;;;;;;;3.68;100.00;102504.03;5032511;28;20021;-37
2023/01/03 06:41:53;;;;;;;39.45;19.77;;;;;;;3.72;100.00;102502.91;5045440;28;20043;-37
2023/01/03 06:44:18;;;;;;;33.45;18.05;;;;;;;3.75;100.00;102501.84;5046281;28;20057;-36
2023/01/03 06:54:58;;;;;;;38.17;19.90;;;;;;;3.90;100.00;102516.03;5051489;28;20044;-37
2023/01/03 06:57:23;;;;;;;43.40;19.20;;;;;;;3.90;100.00;102511.53;5036144;28;20029;-36
2023/01/03 06:59:48;;;;;;;35.85;19.88;;;;;;;3.96;100.00;102504.97;5034961;28;20444;-37
2023/01/03 07:02:14;;;;;;;33.28;18.38;;;;;;;3.94;100.00;102507.72;5035860;28;20022;-39
2023/01/03 07:04:39;;;;;;;39.92;18.15;;;;;;;3.96;100.00;102505.81;5035151;28;20072;-36
2023/01/03 07:07:04;;;;;;;30.50;18.10;;;;;;;4.00;100.00;102517.13;5036659;28;20037;-37
2023/01/03 07:09:30;;;;;;;36.38;17.77;;;;;;;4.05;100.00;102515.00;5032232;28;20028;-40
2023/01/03 07:11:55;;;;;;;33.55;16.45;;;;;;;4.06;100.00;102519.41;5036966;28;20072;-36
2023/01/03 07:14:20;;;;;;;31.48;16.40;;;;;;;4.15;100.00;102510.81;5049638;28;20017;-39
2023/01/03 07:16:47;;;;;;;34.83;16.77;;;;;;;4.18;100.00;102507.09;5040717;28;20024;-39
2023/01/03 07:19:17;;;;;;;33.78;15.68;;;;;;;4.21;100.00;102508.69;5048920;28;20100;-38
2023/01/03 07:21:43;;;;;;;33.90;16.10;;;;;;;4.22;100.00;102510.44;5035668;28;20375;-39
2023/01/03 07:24:11;;;;;;;31.67;15.18;;;;;;;4.20;100.00;102512.34;5033802;28;20033;-37
2023/01/03 07:26:36;;;;;;;27.05;15.05;;;;;;;4.24;100.00;102527.16;5044942;28;20036;-39
2023/01/03 07:29:05;;;;;;;30.63;15.18;;;;;;;4.22;100.00;102518.44;5043887;28;20022;-38
2023/01/03 07:31:34;;;;;;;34.97;15.50;;;;;;;4.34;100.00;102525.59;5036681;28;20041;-39
2023/01/03 07:33:59;;;;;;;35.28;15.25;;;;;;;4.42;100.00;102517.94;5031000;28;20025;-38
2023/01/03 07:36:25;;;;;;;30.98;14.13;;;;;;;4.48;100.00;102519.41;5035388;28;20348;-37
2023/01/03 07:38:50;;;;;;;31.73;15.00;;;;;;;4.54;100.00;102521.63;5050897;28;20017;-38
2023/01/03 07:41:16;;;;;;;34.72;14.57;;;;;;;4.57;100.00;102524.09;5050855;28;20025;-39
2023/01/03 07:43:47;;;;;;;29.20;14.05;;;;;;;4.58;100.00;102516.00;5035041;28;20060;-39
2023/01/03 07:46:16;;;;;;;31.50;14.82;;;;;;;4.62;100.00;102512.16;5030909;28;20053;-37
2023/01/03 07:48:42;;;;;;;28.92;15.77;;;;;;;4.61;100.00;102515.81;5029498;28;20273;-39
2023/01/03 07:51:09;;;;;;;30.08;15.77;;;;;;;4.68;100.00;102523.38;5031279;28;20032;-39
2023/01/03 07:53:35;;;;;;;38.95;17.35;;;;;;;4.71;100.00;102523.19;5030703;28;20025;-39
2023/01/03 07:56:08;;;;;;;34.90;16.02;;;;;;;4.72;100.00;102517.75;5030533;28;20485;-39
2023/01/03 07:58:35;;;;;;;37.90;17.35;;;;;;;4.79;100.00;102518.19;5031516;28;20033;-40
2023/01/03 08:01:09;;;;;;;39.15;17.70;;;;;;;4.75;100.00;102524.69;5031932;28;20025;-39
2023/01/03 08:03:35;;;;;;;36.08;17.13;;;;;;;4.82;100.00;102528.66;5029883;28;20084;-37
2023/01/03 08:06:03;;;;;;;34.28;18.27;;;;;;;4.88;100.00;102530.06;5029201;28;20053;-40
2023/01/03 08:08:28;;;;;;;35.10;18.02;;;;;;;4.87;100.00;102523.88;5030734;28;20121;-40
2023/01/03 08:13:38;;;;;;;37.22;18.50;;;;;;;4.84;100.00;102530.28;5030319;28;20195;-40
2023/01/03 08:16:04;;;;;;;49.22;20.48;;;;;;;4.88;100.00;102530.06;5030239;28;20022;-39
2023/01/03 08:18:29;;;;;;;42.20;21.33;;;;;;;4.90;100.00;102534.34;5036173;28;20032;-40
2023/01/03 08:20:56;;;;;;;46.90;21.92;;;;;;;4.93;100.00;102531.47;5043921;28;20120;-40
2023/01/03 08:23:24;;;;;;;44.65;21.70;;;;;;;4.96;100.00;102525.06;5042539;28;20345;-39
2023/01/03 08:25:50;;;;;;;44.17;22.23;;;;;;;5.03;100.00;102535.22;5050256;28;20040;-37
2023/01/03 08:28:16;;;;;;;50.05;24.45;;;;;;;5.03;100.00;102532.56;5049942;28;20017;-39
2023/01/03 08:30:46;;;;;;;48.10;23.80;;;;;;;5.09;100.00;102535.75;5049917;28;20021;-40
2023/01/03 08:33:14;;;;;;;47.10;24.73;;;;;;;5.10;100.00;102534.78;5043302;28;20053;-39
2023/01/03 08:35:42;;;;;;;52.22;24.65;;;;;;;5.21;100.00;102530.44;5028730;28;20021;-39
2023/01/03 08:38:12;;;;;;;54.88;25.35;;;;;;;5.23;100.00;102533.00;5030983;28;20025;-39
2023/01/03 08:40:39;;;;;;;48.78;25.88;;;;;;;5.26;100.00;102524.75;5030188;28;20025;-39
2023/01/03 08:43:05;;;;;;;54.60;26.33;;;;;;;5.32;100.00;102535.03;5028597;28;20025;-39
2023/01/03 08:45:30;;;;;;;55.28;25.42;;;;;;;5.29;100.00;102535.22;5030065;28;20348;-38
2023/01/03 08:47:58;;;;;;;63.97;27.90;;;;;;;5.30;100.00;102536.94;5030051;28;20033;-38
2023/01/03 08:50:25;;;;;;;55.38;26.65;;;;;;;5.34;100.00;102525.09;5029752;28;20017;-39
2023/01/03 08:52:51;;;;;;;56.90;27.50;;;;;;;5.36;100.00;102531.19;5029861;28;20033;-39
2023/01/03 08:55:16;;;;;;;57.65;27.77;;;;;;;5.40;100.00;102522.00;5030051;28;20032;-38
2023/01/03 08:57:41;;;;;;;55.88;27.73;;;;;;;5.42;100.00;102525.41;5027613;28;20451;-40
2023/01/03 09:00:07;;;;;;;55.20;27.77;;;;;;;5.48;100.00;102524.16;5032899;28;20499;-39
2023/01/03 09:02:34;;;;;;;50.75;26.63;;;;;;;5.53;100.00;102531.81;5032588;28;20441;-39
2023/01/03 09:04:59;;;;;;;56.45;27.00;;;;;;;5.58;100.00;102524.34;5049374;28;20032;-38
2023/01/03 09:07:25;;;;;;;56.45;27.70;;;;;;;5.69;100.00;102514.63;5049657;28;20028;-38
2023/01/03 09:09:50;;;;;;;55.28;27.45;;;;;;;5.65;100.00;102514.94;5045322;28;20033;-38
2023/01/03 09:12:15;;;;;;;52.42;27.83;;;;;;;5.60;100.00;102523.25;5033509;28;20132;-38
2023/01/03 09:14:40;;;;;;;51.63;27.92;;;;;;;5.67;100.00;102529.03;5033370;28;20464;-39
2023/01/03 09:17:06;;;;;;;60.83;29.33;;;;;;;5.67;100.00;102545.06;5033623;28;20064;-41
2023/01/03 09:19:31;;;;;;;59.15;28.70;;;;;;;5.68;100.00;102530.75;5032933;28;20034;-40
2023/01/03 09:21:56;;;;;;;57.13;29.67;;;;;;;5.69;100.00;102532.47;5033286;28;20030;-39
2023/01/03 09:24:22;;;;;;;59.55;28.73;;;;;;;5.70;100.00;102523.47;5032906;28;20033;-40
2023/01/03 09:26:47;;;;;;;70.28;27.83;;;;;;;5.72;100.00;102522.41;5033583;28;20029;-40
2023/01/03 09:29:12;;;;;;;65.55;29.70;;;;;;;5.75;100.00;102520.47;5038755;28;20039;-40
2023/01/03 09:31:38;;;;;;;58.90;27.67;;;;;;;5.77;100.00;102514.06;5051401;28;20048;-39
2023/01/03 09:34:04;;;;;;;55.45;28.30;;;;;;;5.78;100.00;102510.41;5033634;28;20430;-38
2023/01/03 09:36:30;;;;;;;65.13;29.13;;;;;;;5.83;100.00;102524.31;5033156;28;20032;-39
2023/01/03 09:38:55;;;;;;;59.92;28.33;;;;;;;5.81;100.00;102526.22;5032469;28;20033;-40
2023/01/03 09:41:23;;;;;;;61.85;26.83;;;;;;;5.83;100.00;102526.97;5032517;28;20116;-40
2023/01/03 09:43:50;;;;;;;55.40;26.87;;;;;;;5.87;100.00;102532.94;5031446;28;20445;-38
2023/01/03 09:46:20;;;;;;;47.17;25.80;;;;;;;5.87;100.00;102530.28;5032148;28;20045;-40
2023/01/03 09:48:47;;;;;;;50.72;26.25;;;;;;;5.92;100.00;102533.47;5031093;28;20183;-38
2023/01/03 10:05:53;;;;;;;46.78;22.30;;;;;;;6.13;100.00;102548.03;5033072;28;20470;-38
2023/01/03 10:08:53;;;;;;;47.42;21.63;;;;;;;6.15;100.00;102556.75;5042719;28;20032;-39
2023/01/03 10:11:32;;;;;;;48.03;21.98;;;;;;;6.19;100.00;102541.38;5032377;28;20570;-40
2023/01/03 10:14:28;;;;;;;51.90;21.75;;;;;;;6.22;100.00;102546.50;5052561;28;20025;-41
2023/01/03 10:16:56;;;;;;;49.35;22.33;;;;;;;6.23;100.00;102548.19;5051713;28;20057;-40
2023/01/03 10:19:33;;;;;;;51.40;22.27;;;;;;;6.26;100.00;102558.66;5034404;28;20033;-40
2023/01/03 10:22:07;;;;;;;52.67;21.48;;;;;;;6.26;100.00;102552.47;5031582;28;20489;-40
2023/01/03 10:24:54;;;;;;;48.85;23.67;;;;;;;6.26;100.00;102564.00;5030939;28;20060;-39
2023/01/03 10:27:21;;;;;;;54.00;22.58;;;;;;;6.28;100.00;102561.22;5030956;28;20021;-40
2023/01/03 10:29:49;;;;;;;44.85;22.27;;;;;;;6.29;100.00;102553.13;5032185;28;20033;-39
2023/01/03 10:32:40;;;;;;;56.70;23.65;;;;;;;6.32;100.00;102546.69;5036897;28;20049;-39
2023/01/03 10:35:17;;;;;;;56.42;25.98;;;;;;;6.33;100.00;102548.38;5030544;28;20033;-40
2023/01/03 10:37:43;;;;;;;50.38;22.90;;;;;;;6.39;100.00;102542.56;5032325;28;20091;-39
2023/01/03 10:40:10;;;;;;;54.55;23.42;;;;;;;6.42;100.00;102546.84;5032239;28;20156;-40
2023/01/03 10:42:38;;;;;;;52.00;22.65;;;;;;;6.41;100.00;102545.16;5032211;28;20357;-40
2023/01/03 10:45:18;;;;;;;58.90;24.50;;;;;;;6.42;100.00;102544.16;5030616;28;20026;-38
2023/01/03 10:47:44;;;;;;;46.50;22.08;;;;;;;6.46;100.00;102546.50;5040769;28;20039;-39
2023/01/03 10:50:22;;;;;;;43.78;22.05;;;;;;;6.51;100.00;102540.81;5050442;28;20112;-39
2023/01/03 10:52:56;;;;;;;46.80;22.33;;;;;;;6.51;100.00;102535.47;5052083;28;20025;-37
2023/01/03 10:55:24;;;;;;;42.92;20.23;;;;;;;6.53;100.00;102520.16;5042991;28;20335;-38
2023/01/03 10:57:59;;;;;;;43.90;21.25;;;;;;;6.55;100.00;102534.25;5042884;28;20028;-39
2023/01/03 11:00:27;;;;;;;46.60;20.92;;;;;;;6.60;100.00;102532.09;5032359;28;20029;-39
2023/01/03 11:02:54;;;;;;;42.55;19.75;;;;;;;6.64;100.00;102520.22;5031488;28;20031;-39
2023/01/03 11:05:24;;;;;;;34.63;19.13;;;;;;;6.70;100.00;102519.75;5030359;28;20669;-39
2023/01/03 11:08:01;;;;;;;43.53;20.05;;;;;;;6.71;100.00;102528.63;5031766;28;20048;-39
2023/01/03 11:10:38;;;;;;;33.53;18.38;;;;;;;6.74;100.00;102521.25;5031829;28;20071;-38
2023/01/03 11:13:37;;;;;;;37.78;17.73;;;;;;;6.74;100.00;102515.88;5031918;28;20029;-37
2023/01/03 11:16:11;;;;;;;36.13;16.88;;;;;;;6.78;100.00;102512.00;5008218;28;20065;-39
2023/01/03 11:18:36;;;;;;;39.70;17.33;;;;;;;6.79;100.00;102508.38;5016313;28;20037;-41
2023/01/03 11:21:13;;;;;;;40.65;17.58;;;;;;;6.80;100.00;102502.03;5023800;28;20032;-40
2023/01/03 11:24:06;;;;;;;35.47;17.00;;;;;;;6.85;100.00;102501.69;5042796;28;20107;-40
2023/01/03 11:26:34;;;;;;;31.70;16.05;;;;;;;6.84;100.00;102493.75;5043115;28;20033;-38
2023/01/03 11:29:22;;;;;;;;;;;;;;;6.86;100.00;102491.81;5046145;28;20125;-40
2023/01/03 11:31:57;;;;;;;29.58;15.23;;;;;;;6.92;100.00;102475.28;5044733;28;20259;-40
2023/01/03 11:34:38;;;;;;;36.97;14.70;;;;;;;6.97;100.00;102463.25;5042931;28;20096;-40
2023/01/03 11:37:37;;;;;;;30.77;13.95;;;;;;;7.15;100.00;102479.72;5042963;28;20060;-39
2023/01/03 11:40:26;;;;;;;21.05;11.15;;;;;;;7.21;100.00;102471.22;5043251;28;20089;-37
2023/01/03 11:43:13;;;;;;;32.60;13.98;;;;;;;7.27;100.00;102459.19;5044136;28;20033;-39
2023/01/03 11:45:44;;;;;;;25.45;11.98;;;;;;;7.36;100.00;102457.59;5046127;28;20036;-40
2023/01/03 11:49:15;;;;;;;20.30;10.93;;;;;;;7.41;100.00;102461.59;5048277;28;20052;-40
2023/01/03 11:51:51;;;;;;;18.98;10.25;;;;;;;7.36;100.00;102457.59;5007683;28;20057;-38
2023/01/03 11:54:45;;;;;;;30.83;10.93;;;;;;;7.44;100.00;102457.84;4980640;28;20129;-40
2023/01/03 11:57:26;;;;;;;19.98;10.60;;;;;;;7.38;100.00;102453.81;5025894;28;20490;-39
2023/01/03 12:00:16;;;;;;;27.17;10.25;;;;;;;7.33;100.00;102442.63;5049858;28;20046;-39
2023/01/03 12:03:03;;;;;;;22.30;10.60;;;;;;;7.36;100.00;102441.53;5048693;28;20337;-40
2023/01/03 12:05:40;;;;;;;24.95;9.65;;;;;;;7.34;100.00;102432.75;5045198;28;20392;-41
2023/01/03 12:08:05;;;;;;;25.20;9.63;;;;;;;7.35;100.00;102431.78;5048483;28;20104;-38
2023/01/03 12:10:49;;;;;;;18.58;9.43;;;;;;;7.42;100.00;102438.34;5050354;28;20118;-39
2023/01/03 12:13:17;;;;;;;18.88;9.48;;;;;;;7.45;100.00;102425.59;5050109;28;20490;-40
2023/01/03 12:16:03;;;;;;;24.48;9.55;;;;;;;7.49;100.00;102431.53;5040215;28;20519;-37
2023/01/03 12:18:41;;;;;;;19.70;8.57;;;;;;;7.48;100.00;102429.84;5049201;28;20086;-40